createdAt,value
2019-05-03T00:02:22.531Z,8.43
2019-05-03T00:04:51.715Z,7.23
2019-05-03T00:07:18.210Z,8.00
2019-05-03T00:09:44.527Z,7.67
2019-05-03T00:12:12.652Z,7.73
2019-05-03T00:14:41.674Z,7.63
2019-05-03T00:17:08.094Z,7.80
2019-05-03T00:19:34.540Z,7.50
2019-05-03T00:22:02.111Z,7.50
2019-05-03T00:24:28.563Z,8.10
2019-05-03T00:26:54.694Z,7.63
2019-05-03T00:29:22.038Z,8.00
2019-05-03T00:31:48.535Z,8.37
2019-05-03T00:34:28.650Z,8.20
2019-05-03T00:36:56.645Z,8.10
2019-05-03T00:39:32.510Z,8.13
2019-05-03T00:41:58.880Z,8.47
2019-05-03T00:44:25.212Z,8.47
2019-05-03T00:46:51.881Z,8.60
2019-05-03T00:49:18.245Z,8.37
2019-05-03T00:51:44.461Z,9.07
2019-05-03T00:54:12.630Z,8.73
2019-05-03T00:56:38.996Z,8.83
2019-05-03T00:59:05.333Z,8.87
2019-05-03T01:01:32.071Z,9.67
2019-05-03T01:03:58.432Z,9.57
2019-05-03T01:06:24.641Z,9.43
2019-05-03T01:08:52.301Z,10.00
2019-05-03T01:11:18.899Z,9.97
2019-05-03T01:13:45.057Z,9.83
2019-05-03T01:16:15.847Z,10.37
2019-05-03T01:18:43.265Z,10.20
2019-05-03T01:21:11.589Z,10.43
2019-05-03T01:23:37.730Z,11.20
2019-05-03T01:26:04.028Z,10.97
2019-05-03T01:28:32.175Z,10.97
2019-05-03T01:30:58.309Z,11.47
2019-05-03T01:33:24.485Z,11.37
2019-05-03T01:35:51.900Z,12.30
2019-05-03T01:38:19.501Z,12.23
2019-05-03T01:40:46.971Z,11.70
2019-05-03T01:43:13.275Z,13.07
2019-05-03T01:45:39.511Z,12.83
2019-05-03T01:48:10.255Z,12.70
2019-05-03T01:50:47.341Z,13.03
2019-05-03T01:53:15.391Z,12.77
2019-05-03T01:55:52.331Z,12.33
2019-05-03T01:58:22.505Z,10.70
2019-05-03T02:00:54.828Z,9.97
2019-05-03T02:03:25.841Z,9.63
2019-05-03T02:05:53.902Z,9.13
2019-05-03T02:08:21.965Z,9.37
2019-05-03T02:10:48.343Z,8.27
2019-05-03T02:13:14.645Z,8.40
2019-05-03T02:15:42.163Z,9.07
2019-05-03T02:18:08.748Z,8.10
2019-05-03T02:20:34.950Z,7.93
2019-05-03T02:23:02.808Z,8.43
2019-05-03T02:25:29.209Z,8.17
2019-05-03T02:27:55.444Z,8.20
2019-05-03T02:30:24.711Z,8.37
2019-05-03T02:32:49.788Z,8.27
2019-05-03T02:35:15.980Z,8.47
2019-05-03T02:37:44.128Z,8.13
2019-05-03T02:40:12.985Z,8.57
2019-05-03T02:42:39.568Z,9.27
2019-05-03T02:45:08.821Z,9.07
2019-05-03T02:47:39.569Z,8.60
2019-05-03T02:50:07.876Z,8.90
2019-05-03T02:52:36.636Z,8.43
2019-05-03T02:55:06.435Z,9.17
2019-05-03T02:57:35.039Z,9.13
2019-05-03T03:00:01.358Z,9.83
2019-05-03T03:02:28.169Z,9.60
2019-05-03T03:04:56.331Z,9.23
2019-05-03T03:07:25.641Z,8.47
2019-05-03T03:09:51.879Z,8.87
2019-05-03T03:12:20.346Z,8.73
2019-05-03T03:14:47.554Z,9.63
2019-05-03T03:17:20.106Z,8.57
2019-05-03T03:19:47.422Z,8.53
2019-05-03T03:22:16.414Z,8.43
2019-05-03T03:24:46.497Z,8.83
2019-05-03T03:27:16.673Z,8.40
2019-05-03T03:29:46.542Z,8.40
2019-05-03T03:32:18.518Z,9.03
2019-05-03T03:34:56.959Z,8.73
2019-05-03T03:37:19.692Z,9.13
2019-05-03T03:39:46.333Z,8.47
2019-05-03T03:42:15.827Z,8.07
2019-05-03T03:44:41.862Z,8.53
2019-05-03T03:47:10.158Z,8.03
2019-05-03T03:49:37.368Z,8.07
2019-05-03T03:52:06.171Z,8.20
2019-05-03T03:54:35.238Z,8.27
2019-05-03T03:57:08.188Z,7.97
2019-05-03T03:59:36.371Z,8.30
2019-05-03T04:02:02.602Z,7.47
2019-05-03T04:04:29.656Z,8.17
2019-05-03T04:07:00.834Z,7.70
2019-05-03T04:09:25.524Z,8.73
2019-05-03T04:11:52.312Z,8.07
2019-05-03T04:14:26.391Z,8.13
2019-05-03T04:17:11.558Z,7.67
2019-05-03T04:19:40.055Z,7.57
2019-05-03T04:22:06.444Z,7.70
2019-05-03T04:24:35.155Z,7.50
2019-05-03T04:27:15.684Z,7.20
2019-05-03T04:29:35.617Z,7.13
2019-05-03T04:32:06.058Z,6.60
2019-05-03T04:34:32.419Z,6.70
2019-05-03T04:36:58.575Z,6.07
2019-05-03T04:39:25.606Z,6.00
2019-05-03T04:41:52.211Z,6.20
2019-05-03T04:44:18.517Z,6.40
2019-05-03T04:46:46.488Z,5.50
2019-05-03T04:49:15.160Z,5.40
2019-05-03T04:51:41.197Z,5.70
2019-05-03T04:54:26.049Z,5.83
2019-05-03T04:56:52.321Z,6.13
2019-05-03T04:59:18.515Z,6.33
2019-05-03T05:01:46.096Z,7.40
2019-05-03T05:04:12.624Z,5.60
2019-05-03T05:06:38.943Z,6.20
2019-05-03T05:09:06.154Z,6.87
2019-05-03T05:11:34.934Z,5.40
2019-05-03T05:14:00.672Z,5.67
2019-05-03T05:16:26.994Z,5.37
2019-05-03T05:18:56.026Z,5.13
2019-05-03T05:21:30.053Z,5.73
2019-05-03T05:23:58.212Z,5.10
2019-05-03T05:26:27.517Z,5.70
2019-05-03T05:28:58.489Z,5.20
2019-05-03T05:31:25.447Z,5.10
2019-05-03T05:33:52.017Z,5.23
2019-05-03T05:36:18.203Z,4.87
2019-05-03T05:38:45.049Z,4.97
2019-05-03T05:41:11.442Z,4.57
2019-05-03T05:43:37.665Z,4.53
2019-05-03T05:46:05.320Z,4.77
2019-05-03T05:48:36.734Z,4.77
2019-05-03T05:51:04.464Z,4.30
2019-05-03T05:53:30.731Z,4.20
2019-05-03T05:55:58.718Z,4.40
2019-05-03T05:58:26.925Z,4.07
2019-05-03T06:01:05.499Z,4.03
2019-05-03T06:03:31.897Z,4.47
2019-05-03T06:05:59.872Z,4.50
2019-05-03T06:08:35.413Z,4.17
2019-05-03T06:11:09.525Z,4.37
2019-05-03T06:13:37.558Z,4.30
2019-05-03T06:16:08.858Z,4.23
2019-05-03T06:18:39.836Z,4.23
2019-05-03T06:21:08.140Z,4.50
2019-05-03T06:23:45.425Z,4.07
2019-05-03T06:26:30.116Z,4.20
2019-05-03T06:28:56.934Z,4.63
2019-05-03T06:31:27.666Z,4.50
2019-05-03T06:33:55.358Z,4.43
2019-05-03T06:36:21.557Z,4.73
2019-05-03T06:38:47.713Z,4.07
2019-05-03T06:41:15.078Z,4.07
2019-05-03T06:43:44.994Z,4.00
2019-05-03T06:46:09.638Z,3.67
2019-05-03T06:48:35.720Z,4.00
2019-05-03T06:51:08.822Z,4.43
2019-05-03T06:53:29.963Z,3.60
2019-05-03T06:55:56.164Z,3.57
2019-05-03T06:58:31.378Z,3.53
2019-05-03T07:00:59.334Z,3.67
2019-05-03T07:03:27.445Z,3.60
2019-05-03T07:06:14.999Z,2.73
2019-05-03T07:08:58.268Z,3.10
2019-05-03T07:11:24.809Z,3.70
2019-05-03T07:13:51.060Z,2.97
2019-05-03T07:16:17.399Z,3.47
2019-05-03T07:18:45.499Z,3.23
2019-05-03T07:21:11.627Z,3.00
2019-05-03T07:23:37.759Z,3.03
2019-05-03T07:26:05.424Z,2.80
2019-05-03T07:28:44.405Z,3.23
2019-05-03T07:30:59.854Z,2.90
2019-05-03T07:33:27.981Z,2.80
2019-05-03T07:35:54.799Z,3.00
2019-05-03T07:38:21.189Z,2.93
2019-05-03T07:40:47.295Z,3.17
2019-05-03T07:43:14.883Z,2.80
2019-05-03T07:45:41.406Z,3.17
2019-05-03T07:48:07.530Z,3.17
2019-05-03T07:50:35.754Z,2.97
2019-05-03T07:53:04.497Z,3.40
2019-05-03T07:55:50.589Z,3.43
2019-05-03T07:58:21.449Z,3.40
2019-05-03T08:01:02.477Z,3.90
2019-05-03T08:03:17.264Z,3.20
2019-05-03T08:05:45.393Z,3.63
2019-05-03T08:08:11.874Z,3.40
2019-05-03T08:10:38.182Z,3.77
2019-05-03T08:13:04.781Z,3.63
2019-05-03T08:15:31.199Z,3.10
2019-05-03T08:17:57.331Z,3.43
2019-05-03T08:20:24.851Z,3.10
2019-05-03T08:22:51.211Z,3.33
2019-05-03T08:25:17.447Z,3.13
2019-05-03T08:27:44.637Z,2.53
2019-05-03T08:30:14.778Z,2.77
2019-05-03T08:32:48.597Z,2.70
2019-05-03T08:35:19.699Z,2.67
2019-05-03T08:37:47.720Z,2.67
2019-05-03T08:40:15.617Z,2.83
2019-05-03T08:42:42.147Z,2.40
2019-05-03T08:45:08.462Z,2.70
2019-05-03T08:47:34.583Z,2.67
2019-05-03T08:50:00.679Z,2.70
2019-05-03T08:52:27.002Z,2.53
2019-05-03T08:54:55.085Z,3.00
2019-05-03T08:57:21.399Z,2.80
2019-05-03T08:59:47.605Z,2.80
2019-05-03T09:02:16.677Z,2.67
2019-05-03T09:04:43.253Z,2.87
2019-05-03T09:07:10.238Z,2.80
2019-05-03T09:09:41.391Z,3.13
2019-05-03T09:12:07.627Z,2.67
2019-05-03T09:14:42.449Z,2.97
2019-05-03T09:17:02.282Z,3.30
2019-05-03T09:19:28.463Z,2.80
2019-05-03T09:21:54.949Z,3.00
2019-05-03T09:24:21.201Z,3.23
2019-05-03T09:26:47.434Z,2.70
2019-05-03T09:29:14.813Z,3.37
2019-05-03T09:31:41.037Z,2.90
2019-05-03T09:34:08.343Z,2.73
2019-05-03T09:36:35.282Z,3.07
2019-05-03T09:39:01.382Z,3.60
2019-05-03T09:41:29.607Z,2.77
2019-05-03T09:43:55.815Z,2.67
2019-05-03T09:46:24.271Z,2.70
2019-05-03T09:48:50.347Z,2.73
2019-05-03T09:51:16.554Z,3.30
2019-05-03T09:53:50.396Z,2.83
2019-05-03T09:56:18.588Z,2.87
2019-05-03T09:58:46.147Z,2.90
2019-05-03T10:01:12.358Z,2.70
2019-05-03T10:03:38.450Z,2.50
2019-05-03T10:06:04.777Z,2.53
2019-05-03T10:08:31.065Z,2.60
2019-05-03T10:11:09.168Z,2.60
2019-05-03T10:13:35.784Z,2.67
2019-05-03T10:16:02.582Z,2.70
2019-05-03T10:18:28.908Z,2.80
2019-05-03T10:20:56.293Z,2.60
2019-05-03T10:23:36.531Z,2.20
2019-05-03T10:26:05.076Z,1.93
2019-05-03T10:28:31.614Z,2.00
2019-05-03T10:30:58.611Z,2.40
2019-05-03T10:33:30.308Z,2.20
2019-05-03T10:35:56.773Z,2.50
2019-05-03T10:38:24.601Z,2.80
2019-05-03T10:40:51.031Z,2.67
2019-05-03T10:43:17.431Z,2.47
2019-05-03T10:45:44.968Z,2.93
2019-05-03T10:48:12.667Z,2.30
2019-05-03T10:50:38.905Z,2.37
2019-05-03T10:53:07.275Z,2.53
2019-05-03T10:55:35.637Z,2.43
2019-05-03T10:58:12.642Z,2.67
2019-05-03T11:00:46.201Z,2.23
2019-05-03T11:03:11.979Z,2.50
2019-05-03T11:05:38.225Z,2.60
2019-05-03T11:08:05.037Z,2.40
2019-05-03T11:10:31.437Z,2.30
2019-05-03T11:12:57.575Z,2.57
2019-05-03T11:15:25.942Z,2.60
2019-05-03T11:17:51.793Z,2.57
2019-05-03T11:20:29.090Z,2.30
2019-05-03T11:22:54.714Z,2.70
2019-05-03T11:25:20.853Z,2.43
2019-05-03T11:27:48.994Z,2.60
2019-05-03T11:30:16.709Z,2.80
2019-05-03T11:32:44.881Z,2.40
2019-05-03T11:35:18.901Z,2.70
2019-05-03T11:37:46.936Z,2.03
2019-05-03T11:40:15.562Z,2.40
2019-05-03T11:42:41.735Z,2.30
2019-05-03T11:45:08.285Z,2.30
2019-05-03T11:47:34.885Z,2.33
2019-05-03T11:50:01.918Z,2.40
2019-05-03T11:52:28.068Z,2.20
2019-05-03T11:54:55.287Z,2.27
2019-05-03T11:57:26.604Z,2.40
2019-05-03T11:59:54.846Z,2.23
2019-05-03T12:02:24.766Z,2.57
2019-05-03T12:04:51.148Z,2.40
2019-05-03T12:07:19.236Z,2.43
2019-05-03T12:09:45.398Z,2.53
2019-05-03T12:12:15.187Z,2.27
2019-05-03T12:14:41.492Z,2.50
2019-05-03T12:17:18.239Z,2.60
2019-05-03T12:19:38.828Z,2.40
2019-05-03T12:22:06.555Z,2.40
2019-05-03T12:24:35.858Z,2.47
2019-05-03T12:27:01.428Z,2.90
2019-05-03T12:29:27.635Z,2.00
2019-05-03T12:31:54.845Z,2.17
2019-05-03T12:34:21.156Z,2.40
2019-05-03T12:36:47.413Z,2.10
2019-05-03T12:39:24.357Z,2.20
2019-05-03T12:41:41.849Z,2.40
2019-05-03T12:44:08.019Z,2.53
2019-05-03T12:46:35.393Z,2.47
2019-05-03T12:49:01.622Z,2.00
2019-05-03T12:51:27.918Z,2.23
2019-05-03T12:53:55.190Z,2.07
2019-05-03T12:56:24.267Z,2.10
2019-05-03T12:58:57.339Z,2.33
2019-05-03T13:01:40.649Z,2.30
2019-05-03T13:04:16.431Z,2.03
2019-05-03T13:06:45.332Z,2.43
2019-05-03T13:09:12.221Z,2.27
2019-05-03T13:11:51.809Z,2.20
2019-05-03T13:14:08.728Z,2.60
2019-05-03T13:16:35.419Z,2.43
2019-05-03T13:19:01.639Z,2.53
2019-05-03T13:21:28.030Z,2.80
2019-05-03T13:23:54.821Z,2.40
2019-05-03T13:26:21.097Z,2.63
2019-05-03T13:28:47.303Z,2.67
2019-05-03T13:31:13.422Z,3.00
2019-05-03T13:33:39.754Z,2.80
2019-05-03T13:36:05.871Z,2.73
2019-05-03T13:38:31.980Z,2.83
2019-05-03T13:40:58.351Z,2.60
2019-05-03T13:43:24.575Z,2.80
2019-05-03T13:45:50.915Z,2.90
2019-05-03T13:48:20.906Z,2.67
2019-05-03T13:50:45.205Z,3.00
2019-05-03T13:53:11.445Z,2.77
2019-05-03T13:55:37.666Z,2.90
2019-05-03T13:58:05.204Z,2.73
2019-05-03T14:00:31.813Z,2.90
2019-05-03T14:02:58.172Z,2.23
2019-05-03T14:05:24.604Z,6.23
2019-05-03T14:07:50.862Z,4.00
2019-05-03T14:10:17.226Z,2.83
2019-05-03T14:12:45.475Z,2.70
2019-05-03T14:15:12.061Z,2.90
2019-05-03T14:17:38.419Z,2.80
2019-05-03T14:20:10.555Z,2.87
2019-05-03T14:22:38.759Z,3.17
2019-05-03T14:25:05.416Z,3.07
2019-05-03T14:27:31.638Z,2.73
2019-05-03T14:29:58.032Z,2.83
2019-05-03T14:32:26.688Z,3.23
2019-05-03T14:34:54.772Z,3.13
2019-05-03T14:37:21.011Z,2.93
2019-05-03T14:39:48.269Z,3.40
2019-05-03T14:42:15.334Z,3.03
2019-05-03T14:44:42.823Z,3.23
2019-05-03T14:47:10.187Z,2.87
2019-05-03T14:49:36.427Z,3.17
2019-05-03T14:52:05.404Z,3.20
2019-05-03T14:54:34.503Z,3.03
2019-05-03T14:57:17.961Z,3.37
2019-05-03T14:59:52.275Z,3.30
2019-05-03T15:02:20.403Z,3.20
2019-05-03T15:04:46.765Z,3.80
2019-05-03T15:07:15.228Z,3.80
2019-05-03T15:09:42.310Z,3.13
2019-05-03T15:12:08.998Z,3.33
2019-05-03T15:14:35.295Z,3.20
2019-05-03T15:17:01.532Z,3.40
2019-05-03T15:19:27.843Z,3.67
2019-05-03T15:21:54.800Z,3.97
2019-05-03T15:24:21.159Z,3.50
2019-05-03T15:26:47.555Z,3.10
2019-05-03T15:29:15.584Z,3.77
2019-05-03T15:31:41.918Z,3.97
2019-05-03T15:34:08.186Z,3.37
2019-05-03T15:36:34.591Z,3.40
2019-05-03T15:39:00.974Z,3.03
2019-05-03T15:41:27.242Z,3.13
2019-05-03T15:43:57.986Z,3.53
2019-05-03T15:46:35.054Z,3.17
2019-05-03T15:49:04.629Z,3.67
2019-05-03T15:51:31.119Z,3.10
2019-05-03T15:53:57.442Z,3.40
2019-05-03T15:56:25.277Z,3.50
2019-05-03T15:58:52.163Z,4.67
2019-05-03T16:01:18.321Z,4.00
2019-05-03T16:03:44.948Z,4.60
2019-05-03T16:06:11.419Z,3.40
2019-05-03T16:08:37.614Z,3.40
2019-05-03T16:11:05.403Z,3.33
2019-05-03T16:13:31.786Z,3.07
2019-05-03T16:15:57.994Z,3.07
2019-05-03T16:18:24.639Z,2.90
2019-05-03T16:20:51.188Z,3.13
2019-05-03T16:23:19.590Z,2.90
2019-05-03T16:25:45.923Z,3.37
2019-05-03T16:28:26.106Z,3.00
2019-05-03T16:30:55.551Z,3.17
2019-05-03T16:33:26.969Z,3.53
2019-05-03T16:35:50.115Z,3.20
2019-05-03T16:38:16.375Z,3.30
2019-05-03T16:40:42.784Z,3.10
2019-05-03T16:43:09.091Z,3.17
2019-05-03T16:45:35.549Z,2.80
2019-05-03T16:48:01.956Z,3.20
2019-05-03T16:50:28.784Z,2.93
2019-05-03T16:52:55.103Z,3.00
2019-05-03T16:55:21.410Z,2.80
2019-05-03T16:57:47.548Z,3.13
2019-05-03T17:00:17.637Z,2.90
2019-05-03T17:02:44.312Z,2.80
2019-05-03T17:05:15.669Z,2.57
2019-05-03T17:08:00.663Z,2.93
2019-05-03T17:10:41.049Z,2.63
2019-05-03T17:13:07.732Z,2.43
2019-05-03T17:15:35.315Z,2.90
2019-05-03T17:18:01.796Z,2.70
2019-05-03T17:20:28.411Z,3.13
2019-05-03T17:22:55.523Z,2.97
2019-05-03T17:25:21.731Z,2.37
2019-05-03T17:27:48.052Z,2.80
2019-05-03T17:30:14.448Z,2.60
2019-05-03T17:32:40.790Z,2.87
2019-05-03T17:35:07.165Z,2.67
2019-05-03T17:37:34.660Z,2.83
2019-05-03T17:40:03.144Z,2.93
2019-05-03T17:42:49.297Z,2.93
2019-05-03T17:45:17.471Z,3.00
2019-05-03T17:47:45.377Z,2.73
2019-05-03T17:50:14.691Z,2.97
2019-05-03T17:52:49.024Z,3.13
2019-05-03T17:55:17.197Z,3.10
2019-05-03T17:57:47.989Z,3.20
2019-05-03T18:00:34.845Z,3.10
2019-05-03T18:03:01.636Z,3.23
2019-05-03T18:05:35.964Z,3.53
2019-05-03T18:08:13.326Z,3.60
2019-05-03T18:10:41.726Z,3.57
2019-05-03T18:13:07.938Z,3.33
2019-05-03T18:15:34.559Z,3.60
2019-05-03T18:18:00.797Z,3.53
2019-05-03T18:20:27.147Z,3.00
2019-05-03T18:22:54.639Z,3.20
2019-05-03T18:25:21.205Z,3.43
2019-05-03T18:27:47.555Z,3.50
2019-05-03T18:30:14.298Z,4.03
2019-05-03T18:32:40.647Z,3.73
2019-05-03T18:35:06.935Z,3.60
2019-05-03T18:37:34.847Z,3.73
2019-05-03T18:40:01.313Z,3.73
2019-05-03T18:42:41.124Z,4.07
2019-05-03T18:45:10.103Z,3.57
2019-05-03T18:47:36.352Z,3.77
2019-05-03T18:50:07.065Z,3.77
2019-05-03T18:52:34.487Z,3.90
2019-05-03T18:55:00.754Z,4.03
2019-05-03T18:57:27.036Z,3.90
2019-05-03T18:59:55.444Z,4.00
2019-05-03T19:02:22.027Z,3.73
2019-05-03T19:04:49.770Z,3.90
2019-05-03T19:07:20.789Z,3.80
2019-05-03T19:09:55.421Z,5.13
2019-05-03T19:12:26.561Z,4.43
2019-05-03T19:14:54.621Z,4.50
2019-05-03T19:17:31.448Z,3.80
2019-05-03T19:19:59.363Z,3.33
2019-05-03T19:22:25.749Z,4.00
2019-05-03T19:24:52.230Z,4.00
2019-05-03T19:27:18.629Z,4.20
2019-05-03T19:29:45.110Z,4.00
2019-05-03T19:32:11.928Z,4.30
2019-05-03T19:34:47.839Z,4.00
2019-05-03T19:37:06.412Z,4.07
2019-05-03T19:39:34.586Z,4.30
2019-05-03T19:42:00.944Z,4.30
2019-05-03T19:44:27.253Z,4.63
2019-05-03T19:46:53.715Z,4.93
2019-05-03T19:49:20.316Z,4.53
2019-05-03T19:51:46.794Z,4.50
2019-05-03T19:54:14.664Z,4.10
2019-05-03T19:56:41.528Z,4.07
2019-05-03T19:59:10.687Z,4.47
2019-05-03T20:01:41.727Z,4.53
2019-05-03T20:04:26.755Z,4.40
2019-05-03T20:06:54.885Z,3.83
2019-05-03T20:09:24.489Z,4.43
2019-05-03T20:11:51.072Z,4.00
2019-05-03T20:14:17.569Z,4.47
2019-05-03T20:16:44.969Z,4.40
2019-05-03T20:19:18.836Z,4.90
2019-05-03T20:21:39.630Z,4.40
2019-05-03T20:24:06.087Z,4.20
2019-05-03T20:26:34.617Z,4.30
2019-05-03T20:29:00.456Z,4.83
2019-05-03T20:31:26.939Z,4.50
2019-05-03T20:33:54.866Z,4.23
2019-05-03T20:36:21.236Z,5.07
2019-05-03T20:38:47.573Z,4.03
2019-05-03T20:41:14.800Z,4.50
2019-05-03T20:43:44.558Z,4.77
2019-05-03T20:46:15.491Z,4.17
2019-05-03T20:48:44.776Z,4.27
2019-05-03T20:51:11.170Z,4.47
2019-05-03T20:53:37.627Z,4.50
2019-05-03T20:56:05.222Z,4.67
2019-05-03T20:58:32.886Z,5.10
2019-05-03T21:00:59.175Z,4.93
2019-05-03T21:03:25.495Z,5.03
2019-05-03T21:05:51.870Z,5.33
2019-05-03T21:08:18.179Z,5.73
2019-05-03T21:10:44.642Z,5.10
2019-05-03T21:13:11.154Z,5.77
2019-05-03T21:15:42.091Z,5.37
2019-05-03T21:18:10.356Z,6.43
2019-05-03T21:20:38.494Z,5.43
2019-05-03T21:23:06.824Z,5.17
2019-05-03T21:25:36.418Z,5.20
2019-05-03T21:28:04.684Z,5.13
2019-05-03T21:30:32.763Z,5.37
2019-05-03T21:32:59.125Z,5.23
2019-05-03T21:35:38.304Z,5.23
2019-05-03T21:37:54.393Z,5.20
2019-05-03T21:40:20.879Z,6.13
2019-05-03T21:42:47.120Z,5.83
2019-05-03T21:45:15.659Z,5.30
2019-05-03T21:47:54.692Z,5.40
2019-05-03T21:50:21.612Z,5.50
2019-05-03T21:52:47.824Z,5.07
2019-05-03T21:55:15.123Z,5.53
2019-05-03T21:57:41.541Z,5.80
2019-05-03T22:00:09.555Z,5.73
2019-05-03T22:02:39.005Z,5.90
2019-05-03T22:05:06.554Z,5.20
2019-05-03T22:07:34.905Z,5.60
2019-05-03T22:10:01.138Z,5.17
2019-05-03T22:12:27.481Z,5.30
2019-05-03T22:14:55.754Z,5.50
2019-05-03T22:17:40.350Z,5.10
2019-05-03T22:20:08.694Z,5.50
2019-05-03T22:22:49.006Z,5.20
2019-05-03T22:25:17.239Z,5.17
2019-05-03T22:27:45.373Z,5.23
2019-05-03T22:30:11.871Z,4.77
2019-05-03T22:32:37.987Z,5.00
2019-05-03T22:35:07.449Z,4.97
2019-05-03T22:37:35.442Z,5.47
2019-05-03T22:40:05.223Z,4.93
2019-05-03T22:42:31.290Z,5.40
2019-05-03T22:44:57.589Z,4.97
2019-05-03T22:47:25.315Z,5.70
2019-05-03T22:49:51.666Z,5.30
2019-05-03T22:52:17.902Z,5.70
2019-05-03T22:54:45.122Z,5.30
2019-05-03T22:57:11.714Z,5.50
2019-05-03T22:59:37.916Z,5.77
2019-05-03T23:02:04.250Z,5.43
2019-05-03T23:04:30.354Z,5.33
2019-05-03T23:06:56.607Z,5.27
2019-05-03T23:09:24.889Z,4.90
2019-05-03T23:11:51.412Z,5.80
2019-05-03T23:14:17.667Z,5.40
2019-05-03T23:16:44.866Z,5.33
2019-05-03T23:19:11.640Z,5.70
2019-05-03T23:21:39.898Z,6.17
2019-05-03T23:24:06.144Z,5.47
2019-05-03T23:26:34.863Z,5.03
2019-05-03T23:29:01.083Z,5.57
2019-05-03T23:31:27.385Z,5.20
2019-05-03T23:33:54.489Z,5.67
2019-05-03T23:36:32.790Z,5.17
2019-05-03T23:38:49.152Z,5.50
2019-05-03T23:41:15.502Z,5.97
2019-05-03T23:43:41.719Z,5.43
2019-05-03T23:46:08.900Z,6.77
2019-05-03T23:48:35.167Z,5.80
2019-05-03T23:51:01.450Z,6.03
2019-05-03T23:53:27.850Z,6.43
2019-05-03T23:56:05.177Z,6.57
2019-05-03T23:58:31.498Z,6.57
